createdAt,value
2022-08-17T00:02:26.168Z,63.08
2022-08-17T00:04:54.432Z,63.46
2022-08-17T00:07:21.339Z,61.30
2022-08-17T00:09:47.996Z,59.59
2022-08-17T00:12:43.430Z,59.20
2022-08-17T00:15:01.280Z,59.60
2022-08-17T00:17:27.990Z,59.50
2022-08-17T00:19:54.567Z,60.06
2022-08-17T00:22:33.854Z,58.80
2022-08-17T00:25:07.250Z,59.81
2022-08-17T00:27:34.535Z,61.14
2022-08-17T00:30:01.160Z,60.71
2022-08-17T00:33:12.527Z,61.61
2022-08-17T00:35:17.766Z,61.17
2022-08-17T00:37:44.352Z,61.72
2022-08-17T00:40:14.457Z,62.09
2022-08-17T00:42:41.596Z,62.81
2022-08-17T00:45:10.830Z,62.38
2022-08-17T00:47:37.567Z,61.80
2022-08-17T00:50:07.480Z,60.58
2022-08-17T00:52:39.108Z,60.03
2022-08-17T00:55:07.288Z,59.89
2022-08-17T00:57:38.252Z,60.24
2022-08-17T01:00:19.605Z,61.31
2022-08-17T01:02:48.136Z,61.79
2022-08-17T01:05:25.569Z,61.93
2022-08-17T01:07:53.762Z,63.32
2022-08-17T01:11:00.629Z,62.98
2022-08-17T01:13:16.885Z,63.18
2022-08-17T01:15:49.884Z,64.10
2022-08-17T01:18:16.737Z,63.45
2022-08-17T01:20:53.690Z,64.17
2022-08-17T01:23:24.154Z,63.76
2022-08-17T01:25:54.753Z,63.56
2022-08-17T01:28:52.359Z,63.94
2022-08-17T01:31:10.234Z,65.06
2022-08-17T01:33:37.715Z,67.51
2022-08-17T01:36:07.281Z,68.79
2022-08-17T01:38:38.507Z,71.02
2022-08-17T01:41:12.470Z,71.85
2022-08-17T01:43:47.805Z,73.45
2022-08-17T01:46:29.804Z,71.53
2022-08-17T01:48:57.836Z,73.18
2022-08-17T01:51:27.872Z,73.92
2022-08-17T01:53:57.995Z,74.50
2022-08-17T01:56:26.972Z,74.42
2022-08-17T01:58:54.394Z,75.44
2022-08-17T02:01:24.657Z,77.00
2022-08-17T02:03:53.433Z,77.43
2022-08-17T02:06:52.799Z,79.30
2022-08-17T02:09:19.369Z,78.02
2022-08-17T02:11:49.773Z,78.33
2022-08-17T02:17:07.036Z,79.11
2022-08-17T02:19:33.612Z,79.42
2022-08-17T02:22:00.184Z,79.36
2022-08-17T02:24:59.992Z,78.95
2022-08-17T02:27:19.434Z,79.66
2022-08-17T02:29:46.013Z,81.39
2022-08-17T02:32:21.001Z,81.01
2022-08-17T02:34:55.183Z,79.88
2022-08-17T02:37:21.824Z,80.24
2022-08-17T02:39:48.566Z,80.12
2022-08-17T02:42:15.712Z,80.31
2022-08-17T02:44:42.458Z,80.86
2022-08-17T02:47:11.017Z,81.29
2022-08-17T02:49:38.049Z,81.16
2022-08-17T02:52:07.017Z,81.11
2022-08-17T02:54:40.500Z,80.55
2022-08-17T02:57:09.470Z,80.44
2022-08-17T02:59:36.185Z,80.25
2022-08-17T03:02:04.196Z,81.41
2022-08-17T03:04:31.266Z,81.31
2022-08-17T03:07:02.074Z,80.90
2022-08-17T03:09:28.669Z,80.81
2022-08-17T03:11:56.209Z,80.82
2022-08-17T03:14:26.033Z,80.48
2022-08-17T03:16:53.009Z,79.71
2022-08-17T03:19:19.730Z,80.29
2022-08-17T03:21:46.316Z,80.04
2022-08-17T03:24:21.737Z,82.23
2022-08-17T03:26:55.332Z,82.59
2022-08-17T03:29:22.030Z,81.77
2022-08-17T03:31:49.364Z,82.48
2022-08-17T03:34:16.792Z,81.80
2022-08-17T03:36:43.616Z,80.58
2022-08-17T03:39:10.283Z,80.87
2022-08-17T03:41:36.971Z,81.04
2022-08-17T03:44:04.550Z,80.93
2022-08-17T03:46:49.599Z,80.69
2022-08-17T03:49:34.563Z,80.87
2022-08-17T03:52:19.394Z,81.62
2022-08-17T03:55:08.884Z,81.25
2022-08-17T03:57:36.503Z,80.57
2022-08-17T04:00:05.182Z,80.42
2022-08-17T04:02:33.807Z,81.90
2022-08-17T04:05:00.840Z,81.62
2022-08-17T04:07:29.969Z,83.21
2022-08-17T04:09:58.201Z,83.04
2022-08-17T04:12:26.474Z,82.79
2022-08-17T04:14:54.853Z,82.57
2022-08-17T04:17:24.701Z,83.07
2022-08-17T04:19:52.468Z,84.54
2022-08-17T04:22:32.945Z,84.49
2022-08-17T04:25:31.038Z,82.15
2022-08-17T04:27:58.569Z,81.05
2022-08-17T04:30:26.314Z,80.57
2022-08-17T04:33:05.977Z,80.21
2022-08-17T04:35:37.623Z,80.40
2022-08-17T04:38:05.163Z,80.92
2022-08-17T04:40:50.403Z,80.57
2022-08-17T04:43:19.459Z,81.97
2022-08-17T04:45:55.486Z,81.28
2022-08-17T04:48:34.799Z,81.20
2022-08-17T04:51:24.204Z,81.56
2022-08-17T04:53:54.977Z,80.11
2022-08-17T04:56:23.129Z,80.53
2022-08-17T04:58:51.619Z,79.99
2022-08-17T05:01:23.178Z,80.55
2022-08-17T05:03:50.179Z,80.05
2022-08-17T05:06:16.919Z,80.29
2022-08-17T05:08:43.562Z,79.88
2022-08-17T05:11:10.463Z,80.03
2022-08-17T05:13:37.108Z,80.58
2022-08-17T05:16:04.683Z,79.06
2022-08-17T05:18:31.936Z,79.40
2022-08-17T05:20:58.762Z,78.17
2022-08-17T05:23:33.707Z,78.25
2022-08-17T05:26:12.451Z,80.95
2022-08-17T05:28:52.075Z,81.47
2022-08-17T05:31:19.130Z,79.69
2022-08-17T05:33:46.367Z,78.96
2022-08-17T05:36:42.114Z,78.47
2022-08-17T05:39:01.375Z,76.12
2022-08-17T05:41:27.978Z,77.17
2022-08-17T05:43:56.527Z,77.45
2022-08-17T05:46:32.911Z,77.31
2022-08-17T05:49:05.711Z,79.36
2022-08-17T05:51:49.299Z,78.82
2022-08-17T05:54:30.413Z,78.02
2022-08-17T05:57:33.011Z,78.39
2022-08-17T06:00:19.248Z,76.94
2022-08-17T06:03:08.933Z,77.57
2022-08-17T06:05:41.563Z,76.98
2022-08-17T06:08:30.292Z,76.58
2022-08-17T06:11:31.918Z,76.56
2022-08-17T06:14:22.524Z,75.98
2022-08-17T06:16:54.699Z,74.08
2022-08-17T06:19:42.028Z,72.13
2022-08-17T06:22:13.520Z,72.92
2022-08-17T06:25:10.010Z,72.00
2022-08-17T06:27:53.515Z,72.96
2022-08-17T06:30:27.266Z,71.42
2022-08-17T06:32:59.590Z,68.69
2022-08-17T06:35:38.353Z,68.43
2022-08-17T06:38:37.767Z,67.26
2022-08-17T06:41:14.450Z,66.99
2022-08-17T06:43:56.397Z,67.27
2022-08-17T06:46:33.967Z,67.58
2022-08-17T06:49:07.427Z,68.28
2022-08-17T06:51:50.596Z,68.56
2022-08-17T06:54:40.951Z,68.49
2022-08-17T06:57:16.702Z,67.58
2022-08-17T07:00:13.569Z,64.42
2022-08-17T07:03:08.184Z,67.13
2022-08-17T07:05:46.167Z,64.56
2022-08-17T07:08:38.134Z,62.96
2022-08-17T07:11:09.666Z,65.45
2022-08-17T07:13:55.469Z,64.59
2022-08-17T07:16:51.344Z,64.08
2022-08-17T07:19:22.595Z,64.32
2022-08-17T07:22:25.496Z,64.08
2022-08-17T07:24:57.240Z,63.55
2022-08-17T07:27:42.955Z,63.42
2022-08-17T07:30:16.864Z,64.01
2022-08-17T07:32:51.215Z,62.76
2022-08-17T07:35:37.547Z,59.98
2022-08-17T07:38:24.732Z,60.24
2022-08-17T07:40:57.903Z,57.03
2022-08-17T07:43:29.652Z,56.63
2022-08-17T07:46:19.398Z,57.50
2022-08-17T07:48:50.106Z,59.45
2022-08-17T07:51:22.545Z,58.24
2022-08-17T07:53:49.445Z,57.67
2022-08-17T07:56:41.441Z,60.87
2022-08-17T07:59:23.577Z,60.02
2022-08-17T08:02:14.504Z,59.39
2022-08-17T08:05:02.391Z,59.26
2022-08-17T08:07:34.799Z,58.20
2022-08-17T08:10:07.500Z,57.96
2022-08-17T08:12:46.642Z,56.02
2022-08-17T08:15:17.745Z,55.80
2022-08-17T08:17:59.313Z,57.23
2022-08-17T08:20:53.206Z,57.60
2022-08-17T08:23:59.323Z,57.61
2022-08-17T08:26:40.712Z,56.62
2022-08-17T08:29:50.280Z,58.69
2022-08-17T08:32:22.897Z,58.79
2022-08-17T08:35:06.698Z,58.83
2022-08-17T08:37:52.243Z,56.91
2022-08-17T08:40:46.539Z,54.89
2022-08-17T08:43:42.550Z,54.54
2022-08-17T08:46:42.485Z,54.18
2022-08-17T08:49:59.135Z,52.96
2022-08-17T08:52:42.204Z,54.55
2022-08-17T08:55:28.798Z,52.64
2022-08-17T08:58:08.357Z,51.59
2022-08-17T09:00:58.579Z,52.58
2022-08-17T09:03:52.653Z,49.96
2022-08-17T09:06:37.345Z,49.37
2022-08-17T09:09:29.421Z,46.54
2022-08-17T09:12:25.411Z,47.97
2022-08-17T09:15:01.395Z,47.64
2022-08-17T09:17:47.267Z,47.00
2022-08-17T09:20:27.565Z,47.95
2022-08-17T09:23:08.983Z,47.43
2022-08-17T09:25:49.828Z,45.97
2022-08-17T09:28:30.137Z,47.25
2022-08-17T09:31:03.102Z,46.02
2022-08-17T09:33:35.195Z,46.25
2022-08-17T09:36:07.563Z,47.46
2022-08-17T09:38:56.952Z,49.73
2022-08-17T09:41:48.727Z,46.10
2022-08-17T09:44:42.830Z,44.58
2022-08-17T09:47:14.493Z,48.61
2022-08-17T09:49:48.960Z,43.87
2022-08-17T09:52:23.378Z,42.67
2022-08-17T09:54:52.427Z,42.70
2022-08-17T09:57:32.654Z,45.99
2022-08-17T09:59:59.262Z,42.22
2022-08-17T10:02:38.037Z,44.55
2022-08-17T10:05:15.346Z,41.42
2022-08-17T10:07:54.973Z,42.87
2022-08-17T10:10:56.337Z,40.71
2022-08-17T10:13:52.685Z,40.79
2022-08-17T10:16:38.313Z,39.55
2022-08-17T10:19:04.901Z,40.25
2022-08-17T10:22:00.947Z,40.31
2022-08-17T10:25:22.605Z,40.36
2022-08-17T10:27:56.667Z,42.50
2022-08-17T10:30:26.853Z,40.85
2022-08-17T10:32:59.255Z,42.07
2022-08-17T10:35:35.039Z,40.44
2022-08-17T10:38:29.695Z,42.02
2022-08-17T10:41:27.193Z,44.48
2022-08-17T10:44:39.419Z,44.22
2022-08-17T10:47:10.485Z,43.68
2022-08-17T10:49:44.254Z,43.46
2022-08-17T10:52:19.895Z,43.50
2022-08-17T10:54:48.689Z,42.74
2022-08-17T10:57:31.777Z,41.69
2022-08-17T11:00:10.404Z,41.80
2022-08-17T11:02:49.992Z,42.88
2022-08-17T11:05:45.070Z,42.21
2022-08-17T11:08:23.226Z,41.59
2022-08-17T11:11:08.331Z,42.11
2022-08-17T11:13:58.051Z,43.58
2022-08-17T11:16:45.623Z,44.79
2022-08-17T11:19:24.243Z,43.12
2022-08-17T11:22:06.059Z,42.60
2022-08-17T11:24:39.143Z,41.71
2022-08-17T11:27:19.708Z,43.06
2022-08-17T11:29:52.969Z,41.32
2022-08-17T11:32:47.337Z,43.31
2022-08-17T11:35:29.662Z,41.51
2022-08-17T11:38:16.425Z,41.75
2022-08-17T11:41:01.543Z,40.63
2022-08-17T11:43:59.180Z,42.27
2022-08-17T11:47:09.098Z,41.44
2022-08-17T11:50:29.266Z,39.09
2022-08-17T11:52:55.938Z,40.85
2022-08-17T11:55:40.514Z,38.48
2022-08-17T11:58:37.311Z,40.40
2022-08-17T12:01:16.187Z,40.10
2022-08-17T12:03:53.853Z,40.14
2022-08-17T12:06:31.234Z,39.82
2022-08-17T12:09:21.100Z,38.65
2022-08-17T12:12:13.071Z,39.06
2022-08-17T12:17:40.239Z,38.84
2022-08-17T12:20:14.707Z,38.76
2022-08-17T12:22:56.512Z,38.29
2022-08-17T12:25:56.815Z,38.21
2022-08-17T12:28:34.048Z,37.76
2022-08-17T12:31:04.682Z,39.28
2022-08-17T12:33:31.554Z,39.64
2022-08-17T12:36:03.172Z,39.57
2022-08-17T12:38:34.509Z,37.60
2022-08-17T12:41:21.718Z,38.64
2022-08-17T12:44:04.612Z,37.18
2022-08-17T12:46:47.342Z,36.29
2022-08-17T12:49:26.404Z,38.47
2022-08-17T12:52:06.486Z,38.48
2022-08-17T12:54:39.135Z,37.91
2022-08-17T12:57:13.686Z,36.14
2022-08-17T12:59:50.486Z,36.00
2022-08-17T13:02:24.610Z,36.12
2022-08-17T13:04:51.349Z,36.52
2022-08-17T13:07:33.286Z,36.98
2022-08-17T13:09:59.953Z,37.33
2022-08-17T13:12:35.712Z,35.53
2022-08-17T13:15:03.624Z,36.14
2022-08-17T13:17:34.829Z,35.98
2022-08-17T13:20:03.665Z,36.16
2022-08-17T13:22:32.462Z,36.12
2022-08-17T13:25:07.466Z,33.89
2022-08-17T13:27:34.269Z,35.40
2022-08-17T13:30:07.259Z,35.16
2022-08-17T13:32:47.251Z,35.81
2022-08-17T13:35:40.533Z,34.32
2022-08-17T13:38:12.404Z,34.48
2022-08-17T13:40:43.068Z,35.70
2022-08-17T13:43:10.527Z,34.15
2022-08-17T13:46:07.539Z,33.96
2022-08-17T13:48:34.240Z,35.98
2022-08-17T13:51:00.737Z,37.20
2022-08-17T13:53:29.997Z,37.63
2022-08-17T13:56:04.156Z,37.13
2022-08-17T13:58:37.793Z,36.42
2022-08-17T14:01:29.551Z,38.32
2022-08-17T14:03:57.256Z,36.62
2022-08-17T14:06:53.371Z,36.54
2022-08-17T14:09:14.437Z,37.83
2022-08-17T14:11:42.557Z,35.31
2022-08-17T14:14:09.372Z,35.66
2022-08-17T14:16:36.410Z,35.69
2022-08-17T14:19:03.071Z,33.39
2022-08-17T14:21:30.059Z,36.11
2022-08-17T14:23:58.115Z,36.87
2022-08-17T14:26:24.721Z,36.65
2022-08-17T14:28:56.262Z,36.22
2022-08-17T14:31:23.827Z,35.36
2022-08-17T14:33:50.477Z,34.56
2022-08-17T14:36:17.042Z,34.50
2022-08-17T14:38:45.057Z,34.23
2022-08-17T14:41:11.732Z,35.89
2022-08-17T14:43:39.916Z,35.20
2022-08-17T14:46:06.606Z,34.59
2022-08-17T14:48:38.489Z,35.14
2022-08-17T14:51:05.447Z,35.76
2022-08-17T14:53:32.257Z,36.24
2022-08-17T14:55:59.066Z,38.03
2022-08-17T14:58:26.101Z,38.72
2022-08-17T15:00:53.420Z,38.32
2022-08-17T15:03:20.039Z,36.66
2022-08-17T15:05:46.998Z,37.91
2022-08-17T15:08:13.919Z,38.19
2022-08-17T15:10:40.504Z,37.12
2022-08-17T15:13:19.835Z,38.59
2022-08-17T15:15:47.352Z,37.14
2022-08-17T15:18:14.054Z,35.32
2022-08-17T15:20:42.092Z,33.33
2022-08-17T15:23:13.269Z,32.48
2022-08-17T15:25:39.972Z,32.78
2022-08-17T15:28:07.387Z,30.57
2022-08-17T15:30:34.720Z,33.84
2022-08-17T15:33:02.662Z,31.57
2022-08-17T15:35:33.710Z,31.05
2022-08-17T15:38:11.043Z,32.11
2022-08-17T15:40:42.692Z,33.04
2022-08-17T15:43:12.389Z,32.16
2022-08-17T15:45:40.198Z,32.40
2022-08-17T15:48:07.262Z,32.88
2022-08-17T15:50:33.929Z,33.94
2022-08-17T15:53:01.922Z,35.39
2022-08-17T15:55:31.034Z,34.65
2022-08-17T15:57:57.772Z,35.60
2022-08-17T16:00:24.748Z,35.30
2022-08-17T16:03:45.876Z,34.70
2022-08-17T16:05:38.816Z,35.77
2022-08-17T16:08:07.695Z,34.14
2022-08-17T16:10:35.508Z,36.09
2022-08-17T16:13:04.021Z,37.39
2022-08-17T16:15:31.806Z,37.71
2022-08-17T16:17:59.057Z,37.72
2022-08-17T16:20:25.843Z,38.17
2022-08-17T16:22:54.279Z,37.99
2022-08-17T16:25:49.694Z,37.41
2022-08-17T16:28:11.322Z,38.03
2022-08-17T16:30:38.327Z,38.35
2022-08-17T16:33:05.733Z,38.70
2022-08-17T16:35:32.333Z,38.02
2022-08-17T16:37:59.102Z,38.50
2022-08-17T16:40:29.267Z,37.73
2022-08-17T16:42:57.956Z,38.90
2022-08-17T16:45:29.228Z,39.25
2022-08-17T16:47:59.157Z,43.72
2022-08-17T16:50:26.100Z,40.67
2022-08-17T16:52:52.956Z,41.32
2022-08-17T16:55:21.851Z,40.44
2022-08-17T16:57:50.678Z,40.31
2022-08-17T17:00:19.408Z,41.91
2022-08-17T17:02:48.664Z,42.14
2022-08-17T17:05:51.325Z,42.20
2022-08-17T17:08:33.497Z,42.30
2022-08-17T17:11:09.267Z,43.62
2022-08-17T17:13:42.066Z,43.18
2022-08-17T17:16:21.978Z,44.66
2022-08-17T17:19:13.934Z,45.00
2022-08-17T17:21:56.936Z,45.83
2022-08-17T17:25:01.415Z,44.81
2022-08-17T17:27:37.011Z,45.90
2022-08-17T17:30:11.484Z,45.76
2022-08-17T17:32:45.904Z,46.27
2022-08-17T17:35:28.406Z,45.73
2022-08-17T17:37:57.543Z,45.21
2022-08-17T17:40:32.073Z,47.70
2022-08-17T17:43:20.432Z,46.11
2022-08-17T17:45:49.699Z,48.73
2022-08-17T17:48:16.323Z,48.58
2022-08-17T17:52:06.681Z,48.51
2022-08-17T17:54:25.202Z,44.18
2022-08-17T17:57:21.351Z,43.49
2022-08-17T18:00:12.272Z,43.55
2022-08-17T18:03:30.477Z,42.97
2022-08-17T18:06:15.036Z,43.36
2022-08-17T18:09:10.262Z,42.60
2022-08-17T18:12:10.906Z,42.02
2022-08-17T18:15:10.415Z,41.79
2022-08-17T18:17:37.068Z,45.58
2022-08-17T18:20:07.121Z,47.09
2022-08-17T18:22:34.172Z,49.10
2022-08-17T18:25:00.861Z,47.95
2022-08-17T18:27:49.682Z,49.03
2022-08-17T18:30:20.042Z,53.80
2022-08-17T18:32:47.044Z,56.03
2022-08-17T18:35:16.430Z,58.98
2022-08-17T18:37:45.186Z,58.81
2022-08-17T18:40:18.371Z,64.71
2022-08-17T18:43:06.329Z,67.70
2022-08-17T18:45:35.845Z,71.21
2022-08-17T18:48:02.607Z,75.38
2022-08-17T18:50:41.263Z,77.84
2022-08-17T18:53:33.288Z,80.60
2022-08-17T18:56:31.195Z,82.13
2022-08-17T18:59:06.235Z,81.03
2022-08-17T19:01:49.313Z,81.99
2022-08-17T19:04:40.966Z,81.14
2022-08-17T19:07:16.819Z,81.52
2022-08-17T19:09:47.558Z,82.26
2022-08-17T19:12:33.371Z,81.72
2022-08-17T19:15:01.316Z,81.24
2022-08-17T19:17:42.977Z,81.34
2022-08-17T19:20:18.666Z,80.57
2022-08-17T19:22:49.578Z,79.92
2022-08-17T19:25:23.374Z,79.65
2022-08-17T19:27:59.534Z,80.67
2022-08-17T19:30:27.761Z,81.94
2022-08-17T19:32:57.127Z,80.18
2022-08-17T19:35:29.552Z,81.35
2022-08-17T19:37:59.669Z,81.00
2022-08-17T19:41:07.900Z,80.97
2022-08-17T19:43:48.187Z,80.88
2022-08-17T19:46:18.242Z,80.05
2022-08-17T19:49:00.306Z,79.51
2022-08-17T19:51:45.723Z,80.35
2022-08-17T19:54:22.804Z,81.34
2022-08-17T19:57:12.413Z,81.86
2022-08-17T20:00:02.327Z,82.34
2022-08-17T20:02:52.627Z,80.57
2022-08-17T20:05:19.308Z,81.46
2022-08-17T20:08:06.112Z,80.31
2022-08-17T20:10:45.260Z,82.08
2022-08-17T20:13:33.416Z,82.82
2022-08-17T20:16:01.341Z,82.82
2022-08-17T20:18:37.823Z,82.29
2022-08-17T20:21:10.167Z,80.91
2022-08-17T20:24:16.611Z,80.44
2022-08-17T20:27:12.450Z,79.11
2022-08-17T20:29:59.649Z,79.66
2022-08-17T20:32:33.203Z,81.15
2022-08-17T20:35:30.421Z,81.38
2022-08-17T20:38:04.410Z,82.21
2022-08-17T20:40:59.708Z,80.60
2022-08-17T20:43:35.875Z,81.22
2022-08-17T20:46:23.894Z,81.46
2022-08-17T20:48:54.860Z,81.49
2022-08-17T20:51:34.888Z,80.74
2022-08-17T20:54:26.579Z,81.37
2022-08-17T20:56:56.224Z,80.52
2022-08-17T20:59:26.121Z,81.03
2022-08-17T21:02:17.448Z,80.98
2022-08-17T21:04:50.909Z,83.08
2022-08-17T21:07:43.520Z,83.15
2022-08-17T21:10:23.991Z,84.28
2022-08-17T21:13:04.305Z,81.60
2022-08-17T21:15:42.407Z,80.70
2022-08-17T21:18:26.058Z,80.38
2022-08-17T21:21:17.595Z,81.34
2022-08-17T21:23:58.924Z,81.04
2022-08-17T21:26:38.944Z,80.72
2022-08-17T21:29:31.991Z,81.89
2022-08-17T21:31:59.632Z,81.54
2022-08-17T21:34:43.294Z,81.84
2022-08-17T21:37:19.000Z,81.58
2022-08-17T21:39:52.080Z,81.58
2022-08-17T21:42:25.696Z,81.76
2022-08-17T21:44:58.033Z,82.82
2022-08-17T21:47:27.393Z,83.34
2022-08-17T21:49:55.831Z,82.48
2022-08-17T21:52:27.168Z,80.30
2022-08-17T21:54:58.429Z,80.60
2022-08-17T21:57:28.302Z,79.75
2022-08-17T22:00:01.886Z,80.50
2022-08-17T22:02:33.818Z,80.78
2022-08-17T22:05:04.246Z,80.25
2022-08-17T22:07:37.273Z,80.23
2022-08-17T22:10:05.844Z,78.13
2022-08-17T22:12:32.569Z,80.29
2022-08-17T22:15:04.209Z,81.42
2022-08-17T22:17:36.985Z,83.77
2022-08-17T22:20:19.234Z,82.16
2022-08-17T22:23:04.393Z,81.41
2022-08-17T22:25:33.825Z,82.70
2022-08-17T22:28:05.928Z,83.43
2022-08-17T22:30:32.499Z,82.13
2022-08-17T22:33:00.361Z,82.81
2022-08-17T22:35:36.836Z,83.42
2022-08-17T22:38:18.630Z,83.62
2022-08-17T22:40:52.351Z,82.80
2022-08-17T22:43:25.970Z,82.57
2022-08-17T22:45:55.771Z,83.73
2022-08-17T22:48:27.280Z,84.21
2022-08-17T22:51:12.828Z,83.55
2022-08-17T22:54:06.661Z,84.38
2022-08-17T22:56:51.639Z,83.61
2022-08-17T22:59:37.382Z,82.21
2022-08-17T23:02:21.094Z,83.24
2022-08-17T23:04:57.476Z,83.73
2022-08-17T23:07:24.138Z,84.38
2022-08-17T23:09:52.229Z,84.50
2022-08-17T23:12:26.405Z,85.20
2022-08-17T23:15:00.566Z,84.85
2022-08-17T23:17:37.080Z,85.39
2022-08-17T23:20:08.365Z,85.41
2022-08-17T23:22:51.811Z,84.14
2022-08-17T23:25:27.249Z,85.38
2022-08-17T23:27:54.720Z,86.59
2022-08-17T23:30:24.940Z,86.02
2022-08-17T23:32:56.586Z,86.15
2022-08-17T23:35:39.996Z,87.16
2022-08-17T23:38:12.411Z,86.67
2022-08-17T23:40:40.099Z,86.18
2022-08-17T23:43:23.709Z,86.58
2022-08-17T23:45:53.607Z,86.19
2022-08-17T23:48:32.618Z,86.39
2022-08-17T23:51:14.872Z,86.30
2022-08-17T23:53:47.352Z,86.37
2022-08-17T23:56:15.057Z,86.28
2022-08-17T23:58:43.056Z,87.25
